Time;durP1;ratioP1;P1;durP2;ratioP2;P2;SDS_P1;SDS_P2;PMS_P1;PMS_P2;Temp;Humidity;BMP_temperature;BMP_pressure;BME280_temperature;BME280_humidity;BME280_pressure;Samples;Min_cycle;Max_cycle;Signal;HPM_P1;HPM_P2
2022/02/21 00:01:20;;;;;;;14.60;7.92;;;;;;;6.04;51.42;93870.92;1706613;83;21156;-49
2022/02/21 00:03:46;;;;;;;8.90;6.83;;;;;;;6.02;51.43;93865.73;1712643;83;20950;-49
2022/02/21 00:06:15;;;;;;;6.25;5.58;;;;;;;6.02;51.61;93871.19;1688169;83;21132;-49
2022/02/21 00:08:42;;;;;;;7.97;4.80;;;;;;;6.02;51.68;93867.87;1707312;83;21499;-50
2022/02/21 00:11:09;;;;;;;6.33;4.40;;;;;;;6.04;51.65;93867.41;1709877;83;21006;-51
2022/02/21 00:13:35;;;;;;;9.05;4.87;;;;;;;6.07;51.75;93870.63;1712151;82;20966;-59
2022/02/21 00:16:02;;;;;;;6.80;5.45;;;;;;;6.09;51.80;93872.31;1709041;83;21489;-57
2022/02/21 00:18:29;;;;;;;6.25;4.95;;;;;;;6.08;52.05;93869.42;1707134;83;21151;-50
2022/02/21 00:20:55;;;;;;;6.72;5.00;;;;;;;6.05;52.05;93857.43;1705889;83;21668;-50
2022/02/21 00:23:22;;;;;;;8.88;5.78;;;;;;;6.05;52.16;93853.34;1707847;83;20967;-50
2022/02/21 00:25:49;;;;;;;7.50;5.20;;;;;;;6.06;52.22;93844.53;1708784;83;21478;-50
2022/02/21 00:28:17;;;;;;;8.05;6.22;;;;;;;6.08;52.33;93844.27;1705667;83;20975;-51
2022/02/21 00:30:44;;;;;;;14.75;9.28;;;;;;;6.08;52.40;93840.75;1705438;83;21141;-49
2022/02/21 00:33:11;;;;;;;12.78;7.28;;;;;;;6.12;52.49;93838.08;1710117;82;21513;-48
2022/02/21 00:35:39;;;;;;;8.43;6.97;;;;;;;6.16;52.50;93831.14;1706381;83;21092;-49
2022/02/21 00:38:06;;;;;;;9.10;6.35;;;;;;;6.16;52.56;93829.78;1688128;83;20983;-50
2022/02/21 00:40:33;;;;;;;7.85;5.65;;;;;;;6.15;52.72;93826.27;1706741;83;21037;-48
2022/02/21 00:43:01;;;;;;;7.67;5.60;;;;;;;6.18;52.85;93797.33;1706932;83;21135;-48
2022/02/21 00:45:28;;;;;;;11.38;6.53;;;;;;;6.22;52.83;93800.70;1713501;83;21433;-52
2022/02/21 00:47:56;;;;;;;6.45;4.95;;;;;;;6.25;52.95;93809.37;1708463;83;33455;-50
2022/02/21 00:50:24;;;;;;;6.87;5.42;;;;;;;6.32;53.20;93805.05;1688495;83;21553;-49
2022/02/21 00:52:51;;;;;;;6.20;5.55;;;;;;;6.35;53.33;93799.44;1708109;83;21002;-50
2022/02/21 00:55:18;;;;;;;8.33;5.87;;;;;;;6.39;53.43;93798.74;1690748;83;21861;-50
2022/02/21 00:57:46;;;;;;;6.10;5.03;;;;;;;6.40;53.52;93811.19;1687733;83;21065;-49
2022/02/21 01:00:14;;;;;;;6.60;5.15;;;;;;;6.37;54.03;93796.28;1705682;83;21097;-49
2022/02/21 01:02:41;;;;;;;4.87;4.40;;;;;;;6.33;54.58;93811.42;1707282;83;20974;-50
2022/02/21 01:05:08;;;;;;;5.35;4.83;;;;;;;6.31;54.81;93793.34;1708032;83;21411;-49
2022/02/21 01:07:35;;;;;;;4.87;4.58;;;;;;;6.30;55.01;93797.91;1706175;83;21178;-50
2022/02/21 01:10:04;;;;;;;7.05;5.42;;;;;;;6.26;55.27;93800.75;1707210;83;20997;-50
2022/02/21 01:12:31;;;;;;;5.83;5.30;;;;;;;6.25;55.49;93807.41;1707520;83;21042;-51
2022/02/21 01:14:58;;;;;;;4.83;4.53;;;;;;;6.22;55.99;93816.49;1685412;83;20983;-50
2022/02/21 01:17:27;;;;;;;5.60;5.10;;;;;;;6.18;56.72;93831.46;1708527;82;21014;-50
2022/02/21 01:19:54;;;;;;;5.25;4.85;;;;;;;6.15;57.19;93820.06;1706596;83;21218;-49
2022/02/21 01:22:20;;;;;;;5.95;5.33;;;;;;;6.17;57.57;93824.48;1706966;83;21041;-53
2022/02/21 01:24:47;;;;;;;5.03;4.50;;;;;;;6.20;57.66;93820.27;1703483;83;21002;-48
2022/02/21 01:27:14;;;;;;;5.17;4.78;;;;;;;6.18;58.16;93815.83;1688436;83;21503;-52
2022/02/21 01:29:41;;;;;;;4.35;4.03;;;;;;;6.14;58.65;93813.08;1708136;83;21029;-49
2022/02/21 01:32:09;;;;;;;6.03;5.45;;;;;;;6.11;59.03;93783.90;1708005;83;21146;-50
2022/02/21 01:34:36;;;;;;;8.18;5.60;;;;;;;6.08;59.53;93800.58;1687885;83;21456;-50
2022/02/21 01:37:04;;;;;;;5.15;4.72;;;;;;;6.06;60.16;93792.07;1710654;83;21089;-49
2022/02/21 01:39:31;;;;;;;5.87;5.37;;;;;;;6.00;60.93;93771.98;1708566;83;21121;-49
2022/02/21 01:41:58;;;;;;;5.20;4.70;;;;;;;5.96;61.09;93761.78;1711452;83;21220;-48
2022/02/21 01:44:36;;;;;;;5.60;4.78;;;;;;;5.92;61.47;93761.73;1707543;83;21132;-50
2022/02/21 01:47:10;;;;;;;5.78;5.28;;;;;;;5.89;61.68;93758.53;1710067;83;20931;-49
2022/02/21 01:49:38;;;;;;;6.15;5.53;;;;;;;5.84;62.09;93748.18;1713979;83;21517;-50
2022/02/21 01:52:07;;;;;;;5.92;5.35;;;;;;;5.83;62.24;93750.75;1686840;83;21022;-50
2022/02/21 01:54:33;;;;;;;5.42;5.03;;;;;;;5.83;62.33;93735.74;1707383;84;20982;-49
2022/02/21 01:57:00;;;;;;;4.97;4.58;;;;;;;5.83;62.40;93733.76;1688069;83;21208;-49
2022/02/21 01:59:27;;;;;;;5.75;5.15;;;;;;;5.83;62.42;93726.94;1687117;83;21057;-50
2022/02/21 02:01:54;;;;;;;5.20;4.75;;;;;;;5.83;62.55;93715.28;1684900;84;21561;-49
2022/02/21 02:04:22;;;;;;;4.85;4.42;;;;;;;5.82;63.00;93721.32;1705879;83;20959;-49
2022/02/21 02:06:48;;;;;;;4.72;4.33;;;;;;;5.82;63.10;93713.14;1706256;82;21046;-51
2022/02/21 02:09:15;;;;;;;4.97;4.58;;;;;;;5.84;63.11;93720.89;1707658;83;21182;-49
2022/02/21 02:11:42;;;;;;;4.50;4.10;;;;;;;5.82;62.82;93700.11;1707199;83;21053;-49
2022/02/21 02:14:09;;;;;;;4.70;4.30;;;;;;;5.80;62.97;93695.08;1706432;83;20978;-48
2022/02/21 02:16:36;;;;;;;5.42;4.50;;;;;;;5.76;63.15;93692.30;1707817;83;21446;-49
2022/02/21 02:19:02;;;;;;;5.30;4.67;;;;;;;5.74;63.22;93706.37;1706169;83;21053;-49
2022/02/21 02:21:29;;;;;;;4.78;4.37;;;;;;;5.74;63.12;93694.69;1706240;82;21434;-48
2022/02/21 02:23:56;;;;;;;4.45;4.15;;;;;;;5.76;62.57;93701.23;1706746;83;20959;-48
2022/02/21 02:26:23;;;;;;;4.53;4.12;;;;;;;5.80;62.24;93687.52;1707167;83;21521;-48
2022/02/21 02:28:52;;;;;;;28.15;25.25;;;;;;;5.83;62.16;93701.02;1707834;83;21014;-50
2022/02/21 02:31:19;;;;;;;17.30;15.70;;;;;;;5.86;61.96;93704.84;1711356;83;21010;-50
2022/02/21 02:33:46;;;;;;;6.20;5.60;;;;;;;5.91;61.86;93697.44;1707788;83;21194;-50
2022/02/21 02:36:13;;;;;;;5.65;4.47;;;;;;;5.99;61.68;93697.37;1712807;83;21006;-50
2022/02/21 02:38:40;;;;;;;4.65;4.35;;;;;;;6.02;61.38;93702.72;1708268;83;21057;-49
2022/02/21 02:41:08;;;;;;;4.50;4.20;;;;;;;6.04;61.33;93700.89;1715490;83;21501;-49
2022/02/21 02:43:40;;;;;;;4.58;4.17;;;;;;;6.08;61.18;93694.11;1709120;83;20939;-50
2022/02/21 02:46:07;;;;;;;4.15;3.75;;;;;;;6.13;61.09;93689.44;1705637;82;21100;-49
2022/02/21 02:48:34;;;;;;;8.40;6.80;;;;;;;6.21;60.99;93682.53;1706299;82;21541;-49
2022/02/21 02:51:00;;;;;;;5.53;4.72;;;;;;;6.28;61.13;93684.22;1708045;83;21009;-50
2022/02/21 02:53:29;;;;;;;4.10;3.80;;;;;;;6.36;60.98;93677.31;1708745;83;21089;-50
2022/02/21 02:55:56;;;;;;;10.30;9.50;;;;;;;6.40;60.88;93671.11;1712003;83;21053;-50
2022/02/21 02:58:23;;;;;;;8.50;7.70;;;;;;;6.39;60.87;93672.32;1707881;83;22309;-50
2022/02/21 03:00:51;;;;;;;7.80;7.10;;;;;;;6.39;60.81;93659.44;1707814;83;21001;-49
2022/02/21 03:03:18;;;;;;;5.70;5.25;;;;;;;6.41;60.78;93665.22;1690346;83;21023;-49
2022/02/21 03:05:45;;;;;;;11.88;10.78;;;;;;;6.41;60.89;93668.53;1688767;83;21441;-50
2022/02/21 03:08:12;;;;;;;21.25;18.67;;;;;;;6.42;61.15;93659.13;1707476;83;21079;-50
2022/02/21 03:10:39;;;;;;;11.95;10.72;;;;;;;6.43;61.32;93662.02;1708111;83;21130;-50
2022/02/21 03:13:05;;;;;;;11.25;10.08;;;;;;;6.46;61.44;93657.02;1712033;83;21561;-51
2022/02/21 03:15:32;;;;;;;7.05;6.35;;;;;;;6.45;61.46;93645.94;1685630;83;21014;-50
2022/02/21 03:17:59;;;;;;;6.33;5.72;;;;;;;6.45;61.47;93656.28;1690786;83;21522;-50
2022/02/21 03:20:26;;;;;;;8.13;7.40;;;;;;;6.44;61.54;93635.64;1687453;83;21497;-53
2022/02/21 03:22:52;;;;;;;4.70;4.40;;;;;;;6.45;61.54;93633.66;1710547;83;21118;-51
2022/02/21 03:25:19;;;;;;;5.67;5.20;;;;;;;6.49;61.42;93619.28;1712278;83;21447;-50
2022/02/21 03:27:45;;;;;;;5.75;5.25;;;;;;;6.50;61.34;93615.34;1708151;83;20971;-49
2022/02/21 03:30:14;;;;;;;5.10;4.70;;;;;;;6.51;61.19;93616.86;1707908;82;21058;-51
2022/02/21 03:32:41;;;;;;;4.95;4.55;;;;;;;6.52;60.98;93602.73;1708101;83;21001;-50
2022/02/21 03:35:08;;;;;;;4.70;4.33;;;;;;;6.53;60.79;93604.88;1707634;82;21126;-49
2022/02/21 03:37:38;;;;;;;5.53;5.10;;;;;;;6.53;60.59;93591.22;1711183;83;21462;-49
2022/02/21 03:40:06;;;;;;;8.03;7.22;;;;;;;6.53;60.39;93606.23;1706011;83;21407;-50
2022/02/21 03:42:34;;;;;;;5.58;5.12;;;;;;;6.52;60.18;93590.44;1712069;83;21001;-50
2022/02/21 03:45:02;;;;;;;4.62;4.22;;;;;;;6.52;60.14;93606.08;1706011;83;21151;-49
2022/02/21 03:47:29;;;;;;;4.60;4.30;;;;;;;6.51;60.05;93599.84;1706820;83;21120;-49
2022/02/21 03:49:56;;;;;;;4.70;4.30;;;;;;;6.56;59.96;93594.41;1708894;83;20968;-50
2022/02/21 03:52:22;;;;;;;4.20;3.90;;;;;;;6.57;60.02;93594.56;1685496;83;21422;-50
2022/02/21 03:54:49;;;;;;;5.37;4.97;;;;;;;6.57;60.01;93597.30;1706255;83;21093;-51
2022/02/21 03:57:16;;;;;;;4.75;4.35;;;;;;;6.58;60.08;93591.39;1706240;83;21049;-51
2022/02/21 03:59:43;;;;;;;11.65;10.78;;;;;;;6.58;60.12;93583.79;1708301;83;21104;-50
2022/02/21 04:02:09;;;;;;;4.67;4.37;;;;;;;6.59;60.03;93575.74;1687053;83;21165;-50
2022/02/21 04:04:36;;;;;;;7.78;7.17;;;;;;;6.59;60.18;93562.09;1711743;83;21430;-51
2022/02/21 04:07:04;;;;;;;5.87;5.28;;;;;;;6.58;60.18;93571.50;1708932;83;20994;-50
2022/02/21 04:09:30;;;;;;;7.45;6.75;;;;;;;6.57;60.15;93571.34;1707421;83;21029;-52
2022/02/21 04:11:57;;;;;;;8.70;7.90;;;;;;;6.61;59.92;93570.59;1687397;83;21110;-56
2022/02/21 04:14:24;;;;;;;7.17;6.37;;;;;;;6.64;59.88;93566.36;1708860;83;20994;-50
2022/02/21 04:16:51;;;;;;;7.37;6.67;;;;;;;6.68;59.68;93566.98;1707806;83;21573;-60
2022/02/21 04:19:17;;;;;;;17.55;15.30;;;;;;;6.70;59.64;93565.91;1685080;83;20964;-50
2022/02/21 04:21:44;;;;;;;8.65;7.95;;;;;;;6.73;59.70;93564.27;1691129;83;21006;-50
2022/02/21 04:24:11;;;;;;;14.03;12.55;;;;;;;6.77;59.70;93556.68;1706833;83;21208;-52
2022/02/21 04:26:37;;;;;;;7.70;6.95;;;;;;;6.86;59.55;93567.66;1706434;82;20943;-50
2022/02/21 04:29:04;;;;;;;8.55;7.75;;;;;;;6.93;59.46;93556.42;1714012;82;21069;-51
2022/02/21 04:31:31;;;;;;;7.10;6.40;;;;;;;6.95;59.42;93546.56;1711711;83;20998;-51
2022/02/21 04:33:57;;;;;;;12.93;10.40;;;;;;;6.95;59.42;93542.47;1706964;83;21015;-51
2022/02/21 04:36:24;;;;;;;14.47;11.60;;;;;;;6.91;59.53;93542.45;1707598;83;21106;-50
2022/02/21 04:38:51;;;;;;;7.67;6.78;;;;;;;6.88;59.60;93536.52;1686901;83;21116;-53
2022/02/21 04:41:18;;;;;;;7.95;7.12;;;;;;;6.90;59.68;93542.30;1703274;83;21014;-52
2022/02/21 04:43:45;;;;;;;8.10;7.28;;;;;;;6.95;59.64;93559.46;1709756;83;21439;-50
2022/02/21 04:46:12;;;;;;;5.95;4.78;;;;;;;7.00;59.55;93560.22;1706986;82;21002;-51
2022/02/21 04:48:39;;;;;;;9.18;7.87;;;;;;;7.00;59.31;93556.12;1706240;83;21157;-49
2022/02/21 04:51:05;;;;;;;8.30;7.15;;;;;;;7.01;59.24;93555.69;1713349;83;21011;-51
2022/02/21 04:53:32;;;;;;;11.53;8.80;;;;;;;7.04;59.33;93552.66;1691929;83;21021;-54
2022/02/21 04:55:59;;;;;;;8.83;7.50;;;;;;;7.02;59.46;93553.69;1709096;83;21062;-51
2022/02/21 04:58:25;;;;;;;12.58;11.25;;;;;;;6.98;59.69;93548.39;1688062;83;20950;-50
2022/02/21 05:00:52;;;;;;;6.62;6.03;;;;;;;6.95;59.77;93548.53;1708267;82;21838;-51
2022/02/21 05:03:19;;;;;;;8.20;7.40;;;;;;;6.92;59.68;93530.30;1707408;83;21474;-51
2022/02/21 05:05:47;;;;;;;7.62;6.67;;;;;;;6.93;59.84;93546.27;1705907;83;20994;-50
2022/02/21 05:08:14;;;;;;;14.45;11.45;;;;;;;6.89;59.91;93527.11;1706217;83;21482;-51
2022/02/21 05:10:41;;;;;;;9.35;6.70;;;;;;;6.84;59.85;93530.42;1705335;83;20978;-50
2022/02/21 05:13:08;;;;;;;7.00;6.40;;;;;;;6.78;59.97;93496.11;1706110;83;21121;-50
2022/02/21 05:15:34;;;;;;;5.75;5.25;;;;;;;6.73;60.29;93489.86;1712020;82;21045;-51
2022/02/21 05:18:01;;;;;;;8.13;7.15;;;;;;;6.69;60.23;93493.97;1714348;83;21002;-51
2022/02/21 05:20:28;;;;;;;11.73;9.85;;;;;;;6.67;60.30;93488.95;1707233;83;20986;-51
2022/02/21 05:22:55;;;;;;;7.95;6.70;;;;;;;6.67;60.30;93486.84;1707625;83;21065;-51
2022/02/21 05:25:23;;;;;;;10.32;9.25;;;;;;;6.66;60.39;93470.29;1708752;83;21128;-53
2022/02/21 05:27:49;;;;;;;9.78;8.88;;;;;;;6.64;60.35;93480.89;1706959;83;20990;-53
2022/02/21 05:30:16;;;;;;;7.05;6.35;;;;;;;6.62;60.33;93464.19;1714388;83;20950;-60
2022/02/21 05:32:43;;;;;;;7.03;6.03;;;;;;;6.65;60.38;93468.74;1709508;83;21057;-52
2022/02/21 05:35:09;;;;;;;9.48;6.95;;;;;;;6.68;60.31;93467.23;1709459;83;21415;-52
2022/02/21 05:37:36;;;;;;;11.10;8.30;;;;;;;6.70;60.29;93469.53;1706637;83;21145;-53
2022/02/21 05:40:05;;;;;;;11.38;6.17;;;;;;;6.72;60.13;93454.80;1663223;83;21026;-53
2022/02/21 05:42:32;;;;;;;8.20;6.40;;;;;;;6.74;59.78;93456.47;1707124;83;21010;-56
2022/02/21 05:44:59;;;;;;;7.10;6.40;;;;;;;6.79;59.19;93456.64;1687271;83;21462;-55
2022/02/21 05:47:26;;;;;;;10.85;8.05;;;;;;;6.92;58.72;93459.97;1708799;83;20955;-55
2022/02/21 05:49:53;;;;;;;12.58;8.73;;;;;;;7.04;58.53;93450.13;1707125;82;21107;-53
2022/02/21 05:52:20;;;;;;;14.33;9.20;;;;;;;7.10;58.24;93447.08;1687214;83;21061;-54
2022/02/21 05:54:48;;;;;;;22.07;13.00;;;;;;;7.16;57.56;93454.81;1707883;83;21077;-54
2022/02/21 05:57:15;;;;;;;11.18;8.78;;;;;;;7.29;57.39;93454.66;1707251;83;21061;-53
2022/02/21 05:59:42;;;;;;;12.58;11.28;;;;;;;7.39;56.71;93463.80;1688685;83;21236;-53
2022/02/21 06:02:08;;;;;;;9.35;8.38;;;;;;;7.50;56.36;93455.12;1709746;83;21494;-50
2022/02/21 06:04:35;;;;;;;9.68;8.75;;;;;;;7.60;56.28;93451.91;1707676;83;20986;-53
2022/02/21 06:07:04;;;;;;;8.60;7.75;;;;;;;7.69;55.94;93440.18;1681619;83;21078;-50
2022/02/21 06:09:31;;;;;;;8.00;7.17;;;;;;;7.78;55.88;93453.23;1711440;83;21540;-53
2022/02/21 06:11:57;;;;;;;11.63;8.03;;;;;;;7.89;55.28;93454.11;1707030;83;21030;-53
2022/02/21 06:14:26;;;;;;;5.50;5.00;;;;;;;7.98;54.26;93453.48;1710006;83;21154;-53
2022/02/21 06:16:53;;;;;;;7.85;7.05;;;;;;;8.04;54.20;93452.98;1706345;83;21057;-52
2022/02/21 06:19:21;;;;;;;7.28;6.30;;;;;;;8.09;54.20;93463.31;1689212;83;20974;-52
2022/02/21 06:21:49;;;;;;;5.33;4.92;;;;;;;8.11;54.02;93462.23;1685597;84;20997;-53
2022/02/21 06:24:15;;;;;;;5.12;4.62;;;;;;;8.11;53.51;93452.64;1705396;83;21492;-51
2022/02/21 06:26:42;;;;;;;4.90;4.50;;;;;;;8.13;53.28;93435.17;1705288;83;21107;-54
2022/02/21 06:29:09;;;;;;;7.80;6.80;;;;;;;8.11;53.33;93432.11;1700016;83;21025;-59
2022/02/21 06:31:36;;;;;;;8.20;5.55;;;;;;;8.12;53.49;93435.62;1699260;83;21075;-54
2022/02/21 06:34:02;;;;;;;5.83;4.78;;;;;;;8.15;53.43;93449.75;1684479;84;21032;-56
2022/02/21 06:36:29;;;;;;;6.20;4.90;;;;;;;8.18;53.04;93435.93;1684250;83;21278;-52
2022/02/21 06:38:55;;;;;;;6.83;5.25;;;;;;;8.17;52.99;93437.72;1673592;83;21139;-57
2022/02/21 06:41:23;;;;;;;5.80;5.25;;;;;;;8.13;53.07;93442.61;1697058;83;21110;-55
2022/02/21 06:43:50;;;;;;;9.05;5.28;;;;;;;8.09;53.26;93435.92;1679846;83;21192;-53
2022/02/21 06:46:17;;;;;;;10.90;6.45;;;;;;;8.09;53.29;93424.97;1697959;83;21070;-58
2022/02/21 06:48:44;;;;;;;11.73;7.87;;;;;;;8.07;53.35;93428.78;1668778;83;21981;-59
2022/02/21 06:51:11;;;;;;;18.50;11.95;;;;;;;8.05;53.11;93413.42;1685592;83;21139;-55
2022/02/21 06:53:37;;;;;;;8.28;7.12;;;;;;;8.00;52.99;93422.28;1678764;84;20991;-55
2022/02/21 06:56:04;;;;;;;9.65;8.35;;;;;;;7.98;53.08;93420.62;1685381;83;21021;-57
2022/02/21 06:58:30;;;;;;;12.13;6.87;;;;;;;7.98;53.12;93420.62;1702374;83;21078;-55
2022/02/21 07:00:58;;;;;;;9.13;8.05;;;;;;;7.95;52.86;93406.48;1704781;82;20984;-55
2022/02/21 07:03:24;;;;;;;8.03;7.22;;;;;;;7.92;53.02;93403.28;1690852;83;21877;-54
2022/02/21 07:05:51;;;;;;;8.58;7.78;;;;;;;7.92;53.13;93406.02;1699159;82;21076;-60
2022/02/21 07:08:19;;;;;;;8.48;7.40;;;;;;;7.91;53.04;93403.13;1694331;82;21361;-57
2022/02/21 07:10:46;;;;;;;12.82;9.38;;;;;;;7.89;52.97;93393.25;1658687;85;21514;-57
2022/02/21 07:13:12;;;;;;;9.08;7.85;;;;;;;7.89;52.82;93395.99;1666346;83;21726;-55
2022/02/21 07:15:39;;;;;;;13.85;8.45;;;;;;;7.87;52.73;93405.28;1691886;83;21126;-59
2022/02/21 07:18:08;;;;;;;9.38;6.40;;;;;;;7.87;52.63;93399.06;1703188;83;21057;-62
2022/02/21 07:20:35;;;;;;;10.98;6.15;;;;;;;7.87;52.51;93381.27;1691570;83;21573;-54
2022/02/21 07:23:02;;;;;;;7.35;6.47;;;;;;;7.89;52.25;93391.89;1669124;84;21028;-57
2022/02/21 07:25:29;;;;;;;11.80;7.03;;;;;;;7.93;51.96;93381.55;1684107;83;21065;-56
2022/02/21 07:27:56;;;;;;;11.57;7.92;;;;;;;7.96;51.76;93371.03;1694496;83;21144;-56
2022/02/21 07:30:23;;;;;;;23.75;14.33;;;;;;;8.04;51.31;93379.05;1700636;83;21098;-60
2022/02/21 07:32:51;;;;;;;18.32;11.63;;;;;;;8.10;51.97;93377.81;1672191;83;21592;-59
2022/02/21 07:35:19;;;;;;;11.43;8.38;;;;;;;8.10;52.11;93381.30;1679481;82;22137;-56
2022/02/21 07:37:45;;;;;;;18.17;10.80;;;;;;;8.07;51.95;93371.27;1686487;83;21083;-58
2022/02/21 07:40:13;;;;;;;18.52;8.05;;;;;;;8.05;51.62;93368.24;1698882;82;21190;-55
2022/02/21 07:42:52;;;;;;;8.80;6.60;;;;;;;8.04;51.50;93367.36;1686918;83;21783;-60
2022/02/21 07:45:20;;;;;;;7.22;5.83;;;;;;;8.03;51.41;93367.20;1717230;82;21056;-56
2022/02/21 07:47:57;;;;;;;14.83;5.78;;;;;;;8.00;51.45;93375.73;1656779;85;21559;-58
2022/02/21 07:50:25;;;;;;;8.28;3.98;;;;;;;8.00;51.20;93374.36;1664850;84;21594;-58
2022/02/21 07:52:52;;;;;;;5.78;5.20;;;;;;;8.03;50.58;93378.91;1678461;83;21238;-60
2022/02/21 07:55:19;;;;;;;5.90;5.30;;;;;;;8.05;51.24;93371.61;1691628;82;21003;-55
2022/02/21 07:57:47;;;;;;;7.08;5.60;;;;;;;8.03;51.53;93367.95;1663610;82;21067;-53
2022/02/21 08:00:17;;;;;;;4.62;4.22;;;;;;;8.03;51.78;93361.11;1676217;82;21110;-59
2022/02/21 08:02:44;;;;;;;3.90;3.60;;;;;;;8.02;51.74;93353.34;1682342;83;21078;-59
2022/02/21 08:05:10;;;;;;;4.70;4.30;;;;;;;8.00;51.87;93356.56;1685012;82;21145;-57
2022/02/21 08:07:38;;;;;;;4.83;4.42;;;;;;;7.96;51.99;93362.82;1669745;83;21060;-55
2022/02/21 08:10:06;;;;;;;7.12;4.53;;;;;;;7.93;52.08;93361.02;1688746;83;21095;-59
2022/02/21 08:12:34;;;;;;;5.55;4.83;;;;;;;7.92;52.15;93359.47;1679578;83;21041;-60
2022/02/21 08:18:20;;;;;;;4.85;4.35;;;;;;;7.88;52.69;93345.20;1689395;81;21822;-57
2022/02/21 08:20:47;;;;;;;5.47;5.00;;;;;;;7.86;52.47;93351.01;1670577;83;21118;-58
2022/02/21 08:23:14;;;;;;;7.08;3.85;;;;;;;7.85;52.63;93340.66;1704947;82;21080;-59
2022/02/21 08:25:40;;;;;;;4.85;4.35;;;;;;;7.85;52.49;93348.13;1670235;83;21492;-58
2022/02/21 08:28:09;;;;;;;5.58;4.72;;;;;;;7.84;52.80;93335.03;1655697;84;21140;-59
2022/02/21 08:30:36;;;;;;;5.15;4.65;;;;;;;7.81;53.18;93332.45;1685390;82;21144;-57
2022/02/21 08:33:02;;;;;;;8.03;4.72;;;;;;;7.80;53.19;93348.14;1685876;82;21077;-58
2022/02/21 08:35:29;;;;;;;4.85;4.50;;;;;;;7.80;53.09;93330.34;1689582;82;21057;-59
2022/02/21 08:37:56;;;;;;;6.17;4.92;;;;;;;7.83;53.09;93333.52;1688936;82;21384;-58
2022/02/21 08:40:24;;;;;;;9.38;4.37;;;;;;;7.85;52.79;93336.55;1683976;83;21107;-57
2022/02/21 08:42:51;;;;;;;7.60;5.95;;;;;;;7.86;52.82;93346.28;1668790;84;21837;-57
2022/02/21 08:45:18;;;;;;;5.33;4.30;;;;;;;7.86;53.08;93357.23;1680721;82;21027;-60
2022/02/21 08:47:45;;;;;;;5.28;4.12;;;;;;;7.85;52.65;93364.55;1675581;83;21119;-56
2022/02/21 08:50:14;;;;;;;6.97;5.65;;;;;;;7.86;53.06;93355.86;1690900;83;21476;-58
2022/02/21 08:52:42;;;;;;;5.58;5.08;;;;;;;7.86;52.94;93364.70;1688769;83;21510;-55
2022/02/21 08:55:11;;;;;;;5.78;4.70;;;;;;;7.86;52.94;93352.38;1677374;83;21215;-61
2022/02/21 08:57:38;;;;;;;5.92;5.33;;;;;;;7.89;53.20;93347.34;1685264;84;21073;-58
2022/02/21 09:00:07;;;;;;;13.20;6.12;;;;;;;7.89;53.05;93346.71;1700404;82;21556;-62
2022/02/21 09:02:35;;;;;;;10.32;7.08;;;;;;;7.88;53.03;93334.25;1670453;83;21572;-60
2022/02/21 09:08:12;;;;;;;7.70;5.60;;;;;;;7.83;53.17;93298.53;1741720;78;26401;-58
2022/02/21 09:10:39;;;;;;;5.62;5.05;;;;;;;7.79;53.31;93294.61;1706701;82;21578;-60
2022/02/21 09:13:06;;;;;;;5.80;5.20;;;;;;;7.79;52.80;93289.73;1704378;82;21689;-57
2022/02/21 09:15:32;;;;;;;4.92;4.42;;;;;;;7.78;52.39;93315.00;1687063;82;21109;-59
2022/02/21 09:18:02;;;;;;;4.95;4.45;;;;;;;7.80;52.19;93286.55;1707169;81;21227;-56
2022/02/21 09:20:28;;;;;;;4.95;4.45;;;;;;;7.83;52.14;93286.98;1713401;82;21038;-60
2022/02/21 09:22:54;;;;;;;5.50;5.00;;;;;;;7.84;51.71;93291.83;1709254;82;21002;-58
2022/02/21 09:25:21;;;;;;;5.55;5.05;;;;;;;7.86;51.66;93299.73;1717408;82;21148;-59
2022/02/21 09:27:49;;;;;;;6.75;5.67;;;;;;;7.89;51.16;93312.49;1695805;82;21045;-59
2022/02/21 09:30:15;;;;;;;6.12;5.42;;;;;;;7.90;51.12;93312.64;1697384;82;21105;-57
2022/02/21 09:32:42;;;;;;;7.87;5.25;;;;;;;7.92;50.78;93314.30;1717093;82;21074;-59
2022/02/21 09:35:09;;;;;;;12.78;10.05;;;;;;;7.96;51.07;93318.23;1704115;82;21049;-59
2022/02/21 09:37:36;;;;;;;12.35;11.25;;;;;;;7.95;51.13;93316.13;1696113;82;21126;-57
2022/02/21 09:40:06;;;;;;;15.18;13.85;;;;;;;7.93;51.33;93309.00;1702683;81;21403;-60
2022/02/21 09:42:35;;;;;;;16.37;14.87;;;;;;;7.93;51.29;93317.80;1673412;83;21052;-59
2022/02/21 09:45:06;;;;;;;7.95;5.85;;;;;;;7.88;51.44;93293.81;1651585;84;21456;-57
2022/02/21 09:47:33;;;;;;;9.58;5.72;;;;;;;7.85;51.55;93291.38;1678870;83;21080;-59
2022/02/21 09:50:00;;;;;;;7.80;6.50;;;;;;;7.81;51.37;93285.33;1674116;83;21820;-55
2022/02/21 09:52:28;;;;;;;6.70;6.05;;;;;;;7.80;51.38;93267.98;1680975;83;21132;-54
2022/02/21 09:54:55;;;;;;;7.75;4.90;;;;;;;7.83;51.05;93282.88;1676799;84;21043;-61
2022/02/21 09:57:21;;;;;;;7.65;4.83;;;;;;;7.89;51.29;93278.27;1667802;83;21018;-61
2022/02/21 09:59:48;;;;;;;6.62;4.80;;;;;;;7.95;51.29;93281.91;1668226;84;21077;-60
2022/02/21 10:02:29;;;;;;;8.08;6.00;;;;;;;7.95;50.97;93264.11;1672020;83;21816;-55
2022/02/21 10:05:13;;;;;;;11.43;5.60;;;;;;;7.98;50.83;93264.55;1696387;83;21893;-59
2022/02/21 10:07:40;;;;;;;7.83;5.65;;;;;;;7.99;50.75;93256.47;1619490;86;21066;-60
2022/02/21 10:10:10;;;;;;;5.87;4.70;;;;;;;8.03;50.29;93268.00;1591145;87;21129;-59
2022/02/21 10:12:58;;;;;;;8.88;4.70;;;;;;;8.09;50.01;93271.60;1608280;86;21090;-57
2022/02/21 10:15:28;;;;;;;8.50;5.42;;;;;;;8.15;49.80;93264.88;1589567;87;21986;-56
2022/02/21 10:18:16;;;;;;;7.50;5.05;;;;;;;8.21;49.61;93254.21;1617438;86;21117;-59
2022/02/21 10:21:00;;;;;;;7.08;5.65;;;;;;;8.28;49.34;93262.06;1697698;83;21122;-59
2022/02/21 10:23:31;;;;;;;9.58;5.80;;;;;;;8.32;49.11;93254.44;1688623;83;21586;-58
2022/02/21 10:26:00;;;;;;;5.40;4.30;;;;;;;8.36;49.00;93243.28;1692651;83;21054;-58
2022/02/21 10:28:35;;;;;;;7.33;4.65;;;;;;;8.41;48.63;93246.14;1662440;84;21130;-57
2022/02/21 10:31:17;;;;;;;12.33;4.67;;;;;;;8.44;48.41;93236.97;1681431;83;21557;-58
2022/02/21 10:34:01;;;;;;;7.10;4.53;;;;;;;8.47;47.99;93222.33;1670388;83;20994;-57
2022/02/21 10:36:35;;;;;;;5.17;4.20;;;;;;;8.52;47.55;93217.59;1678998;83;21117;-59
2022/02/21 10:39:06;;;;;;;6.12;3.65;;;;;;;8.61;47.10;93203.78;1681743;83;21088;-58
2022/02/21 10:41:43;;;;;;;6.62;5.00;;;;;;;8.69;46.46;93192.61;1668297;84;21161;-60
2022/02/21 10:44:24;;;;;;;5.55;4.55;;;;;;;8.76;46.22;93190.84;1670652;84;21161;-58
2022/02/21 10:47:14;;;;;;;5.03;3.90;;;;;;;8.82;45.36;93196.43;1677477;83;21481;-60
2022/02/21 10:49:53;;;;;;;4.25;3.45;;;;;;;8.90;45.17;93183.98;1681467;83;21054;-59
2022/02/21 10:52:27;;;;;;;6.83;4.90;;;;;;;9.02;44.89;93179.42;1671905;83;21150;-57
2022/02/21 10:54:55;;;;;;;9.03;3.65;;;;;;;9.11;44.80;93168.36;1683764;83;21173;-60
2022/02/21 10:57:25;;;;;;;6.42;4.62;;;;;;;9.18;44.43;93175.59;1676517;83;21910;-59
2022/02/21 10:59:51;;;;;;;8.58;4.40;;;;;;;9.24;44.69;93166.08;1676110;83;21647;-60
2022/02/21 11:02:20;;;;;;;5.87;3.10;;;;;;;9.28;44.42;93161.88;1686027;83;21117;-59
2022/02/21 11:04:47;;;;;;;12.40;4.33;;;;;;;9.32;43.70;93157.58;1681609;83;21545;-58
2022/02/21 11:07:14;;;;;;;4.47;3.20;;;;;;;9.39;43.92;93150.31;1685894;83;21661;-58
2022/02/21 11:09:42;;;;;;;6.67;4.58;;;;;;;9.46;43.59;93152.03;1678325;83;21537;-57
2022/02/21 11:12:10;;;;;;;6.92;4.33;;;;;;;9.53;43.51;93142.66;1695941;83;21101;-60
2022/02/21 11:14:38;;;;;;;2.85;2.65;;;;;;;9.61;42.95;93142.41;1701485;83;21821;-60
2022/02/21 11:17:09;;;;;;;3.92;3.62;;;;;;;9.68;42.39;93135.12;1694050;83;21124;-59
2022/02/21 11:19:35;;;;;;;4.67;3.47;;;;;;;9.73;42.31;93134.42;1678508;84;21166;-58
2022/02/21 11:22:02;;;;;;;3.62;3.35;;;;;;;9.79;42.07;93136.64;1682115;83;21541;-58
2022/02/21 11:24:34;;;;;;;3.87;3.50;;;;;;;9.85;41.95;93127.84;1679969;83;21305;-59
2022/02/21 11:27:42;;;;;;;9.70;4.65;;;;;;;9.90;41.62;93128.52;1673870;84;21548;-59
2022/02/21 11:30:19;;;;;;;6.87;3.62;;;;;;;9.93;41.47;93122.06;1704274;83;21202;-60
2022/02/21 11:33:10;;;;;;;4.42;4.03;;;;;;;9.97;41.42;93108.90;1688443;83;21176;-58
2022/02/21 11:35:45;;;;;;;14.40;6.78;;;;;;;10.00;41.43;93118.91;1700431;83;22324;-59
2022/02/21 11:38:20;;;;;;;7.37;4.58;;;;;;;10.04;41.44;93127.73;1695569;83;21039;-59
2022/02/21 11:41:06;;;;;;;17.20;5.92;;;;;;;10.06;41.24;93126.63;1684820;84;21042;-57
2022/02/21 11:43:45;;;;;;;6.62;4.30;;;;;;;10.10;41.14;93132.66;1678726;84;21580;-60
2022/02/21 11:46:24;;;;;;;13.10;5.33;;;;;;;10.12;41.29;93128.80;1669559;85;21889;-59
2022/02/21 11:49:06;;;;;;;6.78;4.92;;;;;;;10.14;41.28;93131.84;1675492;84;21098;-58
2022/02/21 11:51:37;;;;;;;56.23;19.32;;;;;;;10.16;41.19;93126.63;1673380;84;21133;-60